createdAt,value
2022-12-13T00:02:16.745Z,22.07
2022-12-13T00:04:49.279Z,21.60
2022-12-13T00:07:22.044Z,20.30
2022-12-13T00:09:52.119Z,22.53
2022-12-13T00:12:22.248Z,19.47
2022-12-13T00:14:52.639Z,21.37
2022-12-13T00:17:23.410Z,23.17
2022-12-13T00:19:53.686Z,21.97
2022-12-13T00:22:26.616Z,20.90
2022-12-13T00:24:58.274Z,19.60
2022-12-13T00:27:28.547Z,21.23
2022-12-13T00:29:58.647Z,21.20
2022-12-13T00:32:28.815Z,24.37
2022-12-13T00:34:58.866Z,23.27
2022-12-13T00:37:31.572Z,23.57
2022-12-13T00:40:04.029Z,22.57
2022-12-13T00:42:34.184Z,25.93
2022-12-13T00:45:04.628Z,21.60
2022-12-13T00:47:34.761Z,27.77
2022-12-13T00:50:04.822Z,27.10
2022-12-13T00:52:37.851Z,28.67
2022-12-13T00:55:09.610Z,27.20
2022-12-13T00:57:40.054Z,30.97
2022-12-13T01:00:14.776Z,25.30
2022-12-13T01:02:44.926Z,28.87
2022-12-13T01:05:28.324Z,26.37
2022-12-13T01:08:09.424Z,27.20
2022-12-13T01:10:39.559Z,27.70
2022-12-13T01:13:09.673Z,26.53
2022-12-13T01:15:44.802Z,31.63
2022-12-13T01:18:18.277Z,23.63
2022-12-13T01:21:01.991Z,25.90
2022-12-13T01:23:35.801Z,30.57
2022-12-13T01:26:07.859Z,27.87
2022-12-13T01:28:38.835Z,29.83
2022-12-13T01:31:12.065Z,27.90
2022-12-13T01:33:43.209Z,30.70
2022-12-13T01:36:17.504Z,28.30
2022-12-13T01:38:51.369Z,29.27
2022-12-13T01:41:29.159Z,32.00
2022-12-13T01:44:03.829Z,31.60
2022-12-13T01:46:36.118Z,33.93
2022-12-13T01:49:19.569Z,35.07
2022-12-13T01:51:56.869Z,34.23
2022-12-13T01:54:39.182Z,36.27
2022-12-13T01:57:23.090Z,38.07
2022-12-13T01:59:56.725Z,37.97
2022-12-13T02:02:27.277Z,34.53
2022-12-13T02:05:08.701Z,33.40
2022-12-13T02:07:41.143Z,35.40
2022-12-13T02:10:14.854Z,34.70
2022-12-13T02:12:45.841Z,36.60
2022-12-13T02:15:20.368Z,35.20
2022-12-13T02:18:20.111Z,37.97
2022-12-13T02:21:35.984Z,36.33
2022-12-13T02:24:55.340Z,32.20
2022-12-13T02:28:03.378Z,34.83
2022-12-13T02:31:02.884Z,34.33
2022-12-13T02:33:53.462Z,37.10
2022-12-13T02:36:35.968Z,36.83
2022-12-13T02:39:16.576Z,39.57
2022-12-13T02:42:08.139Z,36.43
2022-12-13T02:44:58.348Z,34.60
2022-12-13T02:47:35.602Z,37.67
2022-12-13T02:50:11.592Z,37.87
2022-12-13T02:52:46.719Z,38.00
2022-12-13T02:55:21.941Z,39.10
2022-12-13T02:57:55.496Z,42.33
2022-12-13T03:00:50.478Z,41.83
2022-12-13T03:03:46.202Z,40.70
2022-12-13T03:06:33.723Z,39.63
2022-12-13T03:09:27.183Z,42.23
2022-12-13T03:12:29.909Z,45.20
2022-12-13T03:15:10.593Z,45.83
2022-12-13T03:17:48.957Z,43.13
2022-12-13T03:20:28.018Z,42.37
2022-12-13T03:23:00.441Z,43.30
2022-12-13T03:25:34.702Z,40.30
2022-12-13T03:28:05.380Z,44.00
2022-12-13T03:30:36.642Z,39.13
2022-12-13T03:33:07.150Z,36.87
2022-12-13T03:35:44.720Z,39.50
2022-12-13T03:38:23.045Z,40.60
2022-12-13T03:41:00.849Z,39.90
2022-12-13T03:43:32.236Z,31.87
2022-12-13T03:46:02.354Z,35.20
2022-12-13T03:48:32.543Z,35.33
2022-12-13T03:51:05.406Z,36.87
2022-12-13T03:53:38.719Z,33.50
2022-12-13T03:56:10.173Z,39.27
2022-12-13T03:58:42.191Z,37.20
2022-12-13T04:01:17.579Z,29.90
2022-12-13T04:03:49.978Z,33.10
2022-12-13T04:06:24.676Z,33.03
2022-12-13T04:08:57.566Z,31.30
2022-12-13T04:11:42.377Z,38.23
2022-12-13T04:14:21.867Z,38.13
2022-12-13T04:16:53.858Z,34.53
2022-12-13T04:19:24.270Z,33.53
2022-12-13T04:21:57.503Z,36.40
2022-12-13T04:24:31.328Z,35.67
2022-12-13T04:27:03.257Z,32.07
2022-12-13T04:29:34.976Z,33.47
2022-12-13T04:32:26.653Z,36.33
2022-12-13T04:35:00.764Z,30.47
2022-12-13T04:37:34.978Z,33.93
2022-12-13T04:40:05.262Z,38.03
2022-12-13T04:42:35.632Z,34.03
2022-12-13T04:45:06.537Z,33.10
2022-12-13T04:47:36.829Z,36.03
2022-12-13T04:50:08.419Z,35.17
2022-12-13T04:52:41.619Z,37.10
2022-12-13T04:55:12.733Z,33.03
2022-12-13T04:57:43.589Z,33.73
2022-12-13T05:00:17.169Z,30.97
2022-12-13T05:02:47.531Z,32.60
2022-12-13T05:05:18.233Z,31.60
2022-12-13T05:07:51.363Z,33.43
2022-12-13T05:10:34.107Z,30.67
2022-12-13T05:13:08.188Z,31.13
2022-12-13T05:15:38.394Z,30.60
2022-12-13T05:18:11.107Z,30.17
2022-12-13T05:20:42.391Z,30.97
2022-12-13T05:23:15.225Z,29.20
2022-12-13T05:25:54.408Z,35.17
2022-12-13T05:28:34.410Z,31.67
2022-12-13T05:31:22.642Z,30.23
2022-12-13T05:33:54.535Z,32.30
2022-12-13T05:36:33.009Z,31.83
2022-12-13T05:39:05.854Z,32.83
2022-12-13T05:42:01.995Z,40.00
2022-12-13T05:44:36.467Z,39.53
2022-12-13T05:47:06.684Z,41.10
2022-12-13T05:49:39.710Z,36.87
2022-12-13T05:52:10.001Z,38.23
2022-12-13T05:54:43.116Z,35.60
2022-12-13T05:57:13.626Z,36.03
2022-12-13T05:59:44.068Z,34.00
2022-12-13T06:02:19.759Z,33.10
2022-12-13T06:04:51.601Z,36.83
2022-12-13T06:07:21.891Z,37.27
2022-12-13T06:10:10.081Z,37.00
2022-12-13T06:12:43.675Z,34.87
2022-12-13T06:15:22.333Z,36.67
2022-12-13T06:17:53.145Z,37.27
2022-12-13T06:20:24.756Z,38.43
2022-12-13T06:22:55.373Z,40.47
2022-12-13T06:25:30.916Z,34.70
2022-12-13T06:28:02.299Z,39.93
2022-12-13T06:30:33.321Z,35.23
2022-12-13T06:33:03.500Z,37.33
2022-12-13T06:35:38.049Z,40.20
2022-12-13T06:38:12.358Z,36.27
2022-12-13T06:40:45.182Z,38.70
2022-12-13T06:43:15.801Z,36.97
2022-12-13T06:45:46.021Z,35.13
2022-12-13T06:48:20.022Z,37.13
2022-12-13T06:50:51.600Z,37.83
2022-12-13T06:53:21.705Z,33.47
2022-12-13T06:55:54.491Z,34.20
2022-12-13T06:58:25.111Z,36.07
2022-12-13T07:01:05.184Z,29.67
2022-12-13T07:03:36.247Z,32.27
2022-12-13T07:06:11.030Z,36.50
2022-12-13T07:08:41.156Z,32.00
2022-12-13T07:11:18.484Z,31.47
2022-12-13T07:13:48.905Z,33.37
2022-12-13T07:16:19.206Z,34.30
2022-12-13T07:18:49.443Z,35.40
2022-12-13T07:21:21.913Z,33.43
2022-12-13T07:23:55.764Z,31.10
2022-12-13T07:26:28.758Z,34.10
2022-12-13T07:28:58.895Z,30.53
2022-12-13T07:31:29.531Z,36.47
2022-12-13T07:33:59.667Z,31.03
2022-12-13T07:36:29.787Z,33.80
2022-12-13T07:39:01.491Z,32.37
2022-12-13T07:41:34.265Z,30.23
2022-12-13T07:44:05.525Z,30.37
2022-12-13T07:46:35.728Z,31.27
2022-12-13T07:49:07.079Z,34.00
2022-12-13T07:51:37.744Z,30.40
2022-12-13T07:54:09.477Z,33.57
2022-12-13T07:56:42.225Z,33.03
2022-12-13T07:59:14.936Z,31.47
2022-12-13T08:01:45.255Z,32.37
2022-12-13T08:04:15.434Z,38.23
2022-12-13T08:06:45.624Z,32.40
2022-12-13T08:09:16.262Z,32.60
2022-12-13T08:11:48.938Z,34.47
2022-12-13T08:14:20.102Z,31.37
2022-12-13T08:16:50.449Z,27.73
2022-12-13T08:19:22.958Z,24.30
2022-12-13T08:21:56.156Z,23.80
2022-12-13T08:24:28.474Z,24.13
2022-12-13T08:27:05.715Z,26.67
2022-12-13T08:29:37.978Z,28.53
2022-12-13T08:32:11.838Z,30.23
2022-12-13T08:34:42.462Z,60.67
2022-12-13T08:37:12.699Z,25.10
2022-12-13T08:39:45.079Z,24.23
2022-12-13T08:42:20.584Z,28.20
2022-12-13T08:44:53.031Z,24.57
2022-12-13T08:47:26.786Z,23.17
2022-12-13T08:50:03.962Z,28.30
2022-12-13T08:52:40.257Z,25.37
2022-12-13T08:55:13.151Z,25.13
2022-12-13T08:57:47.396Z,24.30
2022-12-13T09:00:21.109Z,27.03
2022-12-13T09:02:51.496Z,25.00
2022-12-13T09:05:33.764Z,26.00
2022-12-13T09:08:24.556Z,22.20
2022-12-13T09:11:11.527Z,25.23
2022-12-13T09:14:01.238Z,24.17
2022-12-13T09:16:35.866Z,28.10
2022-12-13T09:19:25.360Z,25.20
2022-12-13T09:22:02.487Z,25.17
2022-12-13T09:24:35.886Z,26.43
2022-12-13T09:27:09.787Z,23.43
2022-12-13T09:29:42.949Z,19.63
2022-12-13T09:32:13.078Z,22.53
2022-12-13T09:34:43.585Z,19.50
2022-12-13T09:37:22.924Z,21.40
2022-12-13T09:39:55.980Z,23.37
2022-12-13T09:42:31.260Z,20.90
2022-12-13T09:45:22.586Z,18.03
2022-12-13T09:48:07.205Z,22.77
2022-12-13T09:50:51.560Z,21.33
2022-12-13T09:53:34.045Z,18.43
2022-12-13T09:56:10.325Z,21.40
2022-12-13T09:58:43.106Z,21.07
2022-12-13T10:01:23.370Z,16.33
2022-12-13T10:03:56.922Z,19.43
2022-12-13T10:06:31.602Z,17.70
2022-12-13T10:09:04.764Z,18.20
2022-12-13T10:11:35.380Z,17.03
2022-12-13T10:14:15.680Z,18.03
2022-12-13T10:16:54.553Z,16.43
2022-12-13T10:19:32.901Z,18.63
2022-12-13T10:22:07.853Z,16.73
2022-12-13T10:24:54.299Z,18.03
2022-12-13T10:27:32.731Z,18.47
2022-12-13T10:30:14.622Z,15.17
2022-12-13T10:32:57.747Z,17.40
2022-12-13T10:35:31.977Z,21.63
2022-12-13T10:38:05.742Z,17.40
2022-12-13T10:40:38.248Z,14.57
2022-12-13T10:43:14.005Z,17.83
2022-12-13T10:45:45.147Z,17.40
2022-12-13T10:48:30.772Z,22.60
2022-12-13T10:51:12.475Z,17.70
2022-12-13T10:53:49.611Z,18.30
2022-12-13T10:56:23.514Z,16.30
2022-12-13T10:59:17.178Z,13.87
2022-12-13T11:01:48.009Z,15.47
2022-12-13T11:04:38.113Z,15.23
2022-12-13T11:07:26.807Z,15.80
2022-12-13T11:09:57.223Z,15.63
2022-12-13T11:12:36.516Z,13.70
2022-12-13T11:15:10.865Z,16.37
2022-12-13T11:17:52.884Z,12.53
2022-12-13T11:20:31.913Z,19.07
2022-12-13T11:23:10.251Z,13.07
2022-12-13T11:25:45.931Z,15.60
2022-12-13T11:28:39.555Z,13.80
2022-12-13T11:31:21.394Z,16.97
2022-12-13T11:34:04.979Z,13.80
2022-12-13T11:36:53.683Z,13.17
2022-12-13T11:39:33.763Z,13.07
2022-12-13T11:42:20.472Z,14.57
2022-12-13T11:45:06.979Z,12.47
2022-12-13T11:47:49.179Z,11.87
2022-12-13T11:50:33.578Z,12.67
2022-12-13T11:53:33.858Z,11.47
2022-12-13T11:56:17.963Z,10.87
2022-12-13T11:59:03.178Z,10.83
2022-12-13T12:01:44.530Z,13.80
2022-12-13T12:04:26.549Z,11.43
2022-12-13T12:07:30.722Z,10.67
2022-12-13T12:10:07.358Z,11.73
2022-12-13T12:12:40.539Z,11.00
2022-12-13T12:15:26.635Z,14.07
2022-12-13T12:18:00.571Z,14.27
2022-12-13T12:20:47.617Z,13.90
2022-12-13T12:23:41.883Z,14.23
2022-12-13T12:26:21.231Z,12.90
2022-12-13T12:29:15.655Z,13.63
2022-12-13T12:31:59.381Z,12.20
2022-12-13T12:34:44.234Z,11.90
2022-12-13T12:37:30.253Z,11.77
2022-12-13T12:41:14.368Z,10.50
2022-12-13T12:43:37.749Z,12.67
2022-12-13T12:46:52.353Z,13.20
2022-12-13T12:50:05.934Z,10.30
2022-12-13T12:52:53.676Z,10.20
2022-12-13T12:55:39.716Z,12.37
2022-12-13T12:58:26.471Z,12.70
2022-12-13T13:01:19.474Z,12.37
2022-12-13T13:03:54.051Z,15.03
2022-12-13T13:06:38.107Z,11.93
2022-12-13T13:09:11.548Z,12.47
2022-12-13T13:11:44.880Z,13.33
2022-12-13T13:14:33.670Z,11.13
2022-12-13T13:17:48.321Z,14.07
2022-12-13T13:20:25.982Z,11.43
2022-12-13T13:23:38.663Z,12.97
2022-12-13T13:26:23.462Z,14.50
2022-12-13T13:28:48.842Z,14.73
2022-12-13T13:31:19.248Z,12.93
2022-12-13T13:33:58.478Z,14.37
2022-12-13T13:36:55.898Z,17.10
2022-12-13T13:39:59.911Z,11.30
2022-12-13T13:42:32.340Z,15.17
2022-12-13T13:45:27.401Z,19.43
2022-12-13T13:48:35.686Z,15.87
2022-12-13T13:52:23.764Z,13.50
2022-12-13T13:55:32.881Z,12.17
2022-12-13T13:59:23.773Z,17.47
2022-12-13T14:02:44.307Z,13.27
2022-12-13T14:05:58.335Z,12.60
2022-12-13T14:08:44.460Z,13.67
2022-12-13T14:11:50.939Z,14.67
2022-12-13T14:15:37.852Z,15.33
2022-12-13T14:18:56.225Z,17.17
2022-12-13T14:21:51.364Z,16.27
2022-12-13T14:24:40.297Z,14.93
2022-12-13T14:27:30.304Z,19.00
2022-12-13T14:30:02.271Z,17.60
2022-12-13T14:32:54.181Z,16.50
2022-12-13T14:35:30.975Z,15.80
2022-12-13T14:38:04.293Z,14.80
2022-12-13T14:40:47.636Z,14.87
2022-12-13T14:43:27.585Z,17.57
2022-12-13T14:46:01.577Z,14.63
2022-12-13T14:48:38.610Z,17.53
2022-12-13T14:51:29.116Z,16.13
2022-12-13T14:53:59.421Z,16.83
2022-12-13T14:56:32.660Z,16.27
2022-12-13T14:59:06.003Z,15.17
2022-12-13T15:01:38.923Z,16.40
2022-12-13T15:04:29.169Z,16.83
2022-12-13T15:07:07.225Z,17.33
2022-12-13T15:09:44.569Z,16.10
2022-12-13T15:12:24.573Z,19.07
2022-12-13T15:15:03.017Z,16.27
2022-12-13T15:17:39.285Z,17.30
2022-12-13T15:20:28.201Z,16.10
2022-12-13T15:23:06.154Z,15.87
2022-12-13T15:25:37.958Z,18.33
2022-12-13T15:28:21.486Z,18.10
2022-12-13T15:30:53.342Z,20.60
2022-12-13T15:33:33.429Z,18.37
2022-12-13T15:36:13.157Z,18.30
2022-12-13T15:38:51.547Z,21.10
2022-12-13T15:41:27.587Z,19.83
2022-12-13T15:44:05.665Z,17.47
2022-12-13T15:46:39.561Z,23.70
2022-12-13T15:49:26.915Z,21.90
2022-12-13T15:52:01.397Z,20.70
2022-12-13T15:54:31.990Z,16.07
2022-12-13T15:57:13.981Z,20.07
2022-12-13T15:59:48.215Z,17.50
2022-12-13T16:02:24.390Z,17.87
2022-12-13T16:04:55.399Z,20.90
2022-12-13T16:07:32.688Z,17.90
2022-12-13T16:10:03.347Z,20.60
2022-12-13T16:12:47.626Z,19.20
2022-12-13T16:15:28.782Z,22.40
2022-12-13T16:18:17.166Z,24.87
2022-12-13T16:20:47.371Z,17.90
2022-12-13T16:23:26.706Z,17.17
2022-12-13T16:25:57.562Z,17.07
2022-12-13T16:28:27.632Z,17.40
2022-12-13T16:31:15.047Z,17.50
2022-12-13T16:33:45.690Z,20.43
2022-12-13T16:36:15.865Z,20.80
2022-12-13T16:38:46.003Z,19.97
2022-12-13T16:41:17.153Z,22.93
2022-12-13T16:43:56.753Z,19.03
2022-12-13T16:47:15.081Z,21.00
2022-12-13T16:49:31.290Z,18.53
2022-12-13T16:52:03.003Z,21.13
2022-12-13T16:54:33.150Z,16.87
2022-12-13T16:57:03.291Z,18.50
2022-12-13T16:59:33.425Z,16.23
2022-12-13T17:02:06.282Z,20.90
2022-12-13T17:04:39.724Z,17.63
2022-12-13T17:07:09.916Z,17.20
2022-12-13T17:09:42.130Z,21.53
2022-12-13T17:12:12.341Z,24.13
2022-12-13T17:14:42.455Z,21.50
2022-12-13T17:17:17.981Z,20.93
2022-12-13T17:19:48.316Z,17.93
2022-12-13T17:22:18.419Z,22.43
2022-12-13T17:24:48.588Z,21.07
2022-12-13T17:27:18.684Z,19.57
2022-12-13T17:29:50.502Z,19.70
2022-12-13T17:32:23.171Z,22.03
2022-12-13T17:34:59.054Z,21.20
2022-12-13T17:37:29.151Z,19.50
2022-12-13T17:40:00.513Z,16.23
2022-12-13T17:42:30.587Z,18.43
2022-12-13T17:45:00.779Z,18.87
2022-12-13T17:47:33.517Z,17.53
2022-12-13T17:50:03.638Z,16.87
2022-12-13T17:52:33.812Z,16.47
2022-12-13T17:55:05.186Z,19.37
2022-12-13T17:57:36.002Z,18.03
2022-12-13T18:00:08.913Z,19.13
2022-12-13T18:02:41.912Z,17.60
2022-12-13T18:05:26.370Z,15.93
2022-12-13T18:07:56.690Z,18.27
2022-12-13T18:10:30.003Z,13.50
2022-12-13T18:13:01.094Z,14.67
2022-12-13T18:15:31.309Z,13.73
2022-12-13T18:18:12.178Z,16.07
2022-12-13T18:20:43.760Z,17.23
2022-12-13T18:23:15.197Z,16.30
2022-12-13T18:25:45.959Z,20.83
2022-12-13T18:28:19.464Z,19.83
2022-12-13T18:30:49.669Z,15.10
2022-12-13T18:33:27.205Z,16.07
2022-12-13T18:35:57.794Z,20.13
2022-12-13T18:38:36.144Z,18.83
2022-12-13T18:41:11.384Z,13.80
2022-12-13T18:43:41.438Z,13.60
2022-12-13T18:46:13.469Z,16.13
2022-12-13T18:48:46.510Z,14.77
2022-12-13T18:51:16.679Z,15.00
2022-12-13T18:53:47.351Z,14.67
2022-12-13T18:56:19.789Z,16.10
2022-12-13T18:58:50.769Z,15.90
2022-12-13T19:01:22.900Z,18.53
2022-12-13T19:03:56.463Z,13.57
2022-12-13T19:06:30.110Z,16.83
2022-12-13T19:09:01.759Z,13.97
2022-12-13T19:11:32.251Z,13.83
2022-12-13T19:14:02.775Z,15.50
2022-12-13T19:16:32.946Z,13.33
2022-12-13T19:19:07.002Z,11.87
2022-12-13T19:21:37.121Z,12.17
2022-12-13T19:24:10.969Z,25.13
2022-12-13T19:26:41.265Z,19.50
2022-12-13T19:29:11.390Z,15.00
2022-12-13T19:31:41.504Z,14.87
2022-12-13T19:34:14.217Z,15.60
2022-12-13T19:36:44.347Z,14.53
2022-12-13T19:39:15.868Z,13.03
2022-12-13T19:41:46.043Z,14.77
2022-12-13T19:44:16.174Z,16.83
2022-12-13T19:46:48.238Z,15.00
2022-12-13T19:49:23.298Z,15.80
2022-12-13T19:51:53.438Z,16.53
2022-12-13T19:54:25.022Z,16.53
2022-12-13T19:56:55.671Z,19.43
2022-12-13T19:59:28.237Z,21.43
2022-12-13T20:01:58.564Z,16.83
2022-12-13T20:04:33.977Z,18.87
2022-12-13T20:07:04.054Z,19.27
2022-12-13T20:09:34.528Z,17.33
2022-12-13T20:12:05.262Z,18.10
2022-12-13T20:14:35.339Z,18.23
2022-12-13T20:17:05.500Z,15.50
2022-12-13T20:19:38.423Z,17.20
2022-12-13T20:22:08.543Z,17.77
2022-12-13T20:24:38.685Z,14.57
2022-12-13T20:27:11.235Z,18.83
2022-12-13T20:29:42.035Z,21.77
2022-12-13T20:32:18.576Z,27.23
2022-12-13T20:34:55.147Z,25.53
2022-12-13T20:37:27.910Z,25.77
2022-12-13T20:39:58.018Z,19.07
2022-12-13T20:42:28.127Z,15.20
2022-12-13T20:44:58.280Z,15.30
2022-12-13T20:47:32.751Z,14.97
2022-12-13T20:50:09.486Z,17.03
2022-12-13T20:52:39.642Z,17.63
2022-12-13T20:55:13.819Z,15.10
2022-12-13T20:57:43.866Z,17.23
2022-12-13T21:00:16.882Z,15.67
2022-12-13T21:02:47.266Z,16.67
2022-12-13T21:05:22.262Z,15.47
2022-12-13T21:08:04.755Z,14.87
2022-12-13T21:10:34.897Z,17.03
2022-12-13T21:13:04.986Z,16.73
2022-12-13T21:15:35.096Z,14.47
2022-12-13T21:18:05.168Z,14.03
2022-12-13T21:20:38.914Z,19.53
2022-12-13T21:23:08.950Z,18.17
2022-12-13T21:25:41.932Z,13.93
2022-12-13T21:28:11.973Z,18.37
2022-12-13T21:30:42.614Z,19.13
2022-12-13T21:33:12.693Z,20.50
2022-12-13T21:35:47.702Z,16.20
2022-12-13T21:38:18.980Z,18.53
2022-12-13T21:40:49.182Z,17.07
2022-12-13T21:43:36.732Z,18.37
2022-12-13T21:46:10.136Z,18.17
2022-12-13T21:48:42.188Z,18.53
2022-12-13T21:51:18.382Z,14.67
2022-12-13T21:53:48.714Z,18.30
2022-12-13T21:56:34.766Z,17.67
2022-12-13T21:59:20.579Z,15.93
2022-12-13T22:02:06.201Z,16.33
2022-12-13T22:04:38.851Z,15.70
2022-12-13T22:07:14.199Z,13.97
2022-12-13T22:09:44.541Z,16.23
2022-12-13T22:12:24.210Z,16.83
2022-12-13T22:14:55.932Z,18.57
2022-12-13T22:17:34.617Z,14.10
2022-12-13T22:20:07.643Z,13.33
2022-12-13T22:22:42.523Z,13.67
2022-12-13T22:25:13.289Z,13.70
2022-12-13T22:27:43.506Z,13.37
2022-12-13T22:30:14.598Z,14.20
2022-12-13T22:32:44.676Z,17.47
2022-12-13T22:35:14.734Z,12.40
2022-12-13T22:37:47.408Z,10.13
2022-12-13T22:40:19.265Z,12.37
2022-12-13T22:42:49.439Z,13.93
2022-12-13T22:45:19.751Z,15.00
2022-12-13T22:47:49.915Z,13.53
2022-12-13T22:50:23.339Z,11.80
2022-12-13T22:52:56.071Z,12.80
2022-12-13T22:55:26.492Z,13.10
2022-12-13T22:57:56.795Z,12.53
2022-12-13T23:00:27.259Z,13.10
2022-12-13T23:02:57.703Z,13.57
2022-12-13T23:05:27.809Z,16.33
2022-12-13T23:08:00.434Z,12.63
2022-12-13T23:10:43.043Z,12.30
2022-12-13T23:13:16.468Z,13.23
2022-12-13T23:15:49.461Z,14.03
2022-12-13T23:18:20.024Z,11.07
2022-12-13T23:20:50.438Z,12.07
2022-12-13T23:23:23.209Z,11.77
2022-12-13T23:25:53.335Z,11.37
2022-12-13T23:28:23.498Z,12.17
2022-12-13T23:30:53.689Z,12.20
2022-12-13T23:33:23.828Z,14.07
2022-12-13T23:36:09.200Z,12.40
2022-12-13T23:38:43.447Z,13.97
2022-12-13T23:41:23.258Z,12.47
2022-12-13T23:43:56.202Z,11.50
2022-12-13T23:46:30.244Z,11.37
2022-12-13T23:49:03.555Z,11.97
2022-12-13T23:51:38.044Z,11.93
2022-12-13T23:54:15.111Z,9.83
2022-12-13T23:56:45.310Z,10.17
2022-12-13T23:59:15.582Z,10.53
